sensor_id;sensor_type;location;lat;lon;timestamp;P1;durP1;ratioP1;P2;durP2;ratioP2
63621;SDS011;49770;47.544;19.074;2023-02-28T05:12:25;17.98;;;8.30;;
63621;SDS011;49770;47.544;19.074;2023-02-28T05:15:29;16.90;;;8.25;;
63621;SDS011;49770;47.544;19.074;2023-02-28T05:18:31;13.75;;;7.97;;
63621;SDS011;49770;47.544;19.074;2023-02-28T05:21:35;16.98;;;8.07;;
63621;SDS011;49770;47.544;19.074;2023-02-28T05:24:40;15.60;;;8.65;;
63621;SDS011;49770;47.544;19.074;2023-02-28T05:27:44;14.10;;;8.15;;
63621;SDS011;49770;47.544;19.074;2023-02-28T05:30:49;16.35;;;8.60;;
63621;SDS011;49770;47.544;19.074;2023-02-28T05:33:52;12.45;;;7.82;;
63621;SDS011;49770;47.544;19.074;2023-02-28T05:36:54;15.85;;;7.43;;
63621;SDS011;49770;47.544;19.074;2023-02-28T05:39:57;16.12;;;8.02;;
63621;SDS011;49770;47.544;19.074;2023-02-28T05:43:00;15.00;;;7.70;;
63621;SDS011;49770;47.544;19.074;2023-02-28T05:46:07;12.20;;;7.50;;
63621;SDS011;49770;47.544;19.074;2023-02-28T05:49:11;13.15;;;7.80;;
63621;SDS011;49770;47.544;19.074;2023-02-28T05:52:14;15.77;;;7.32;;
63621;SDS011;49770;47.544;19.074;2023-02-28T05:55:17;13.50;;;7.55;;
63621;SDS011;49770;47.544;19.074;2023-02-28T05:58:21;13.30;;;7.30;;
63621;SDS011;49770;47.544;19.074;2023-02-28T06:04:33;14.00;;;7.68;;
63621;SDS011;49770;47.544;19.074;2023-02-28T06:07:36;14.70;;;8.07;;
63621;SDS011;49770;47.544;19.074;2023-02-28T06:10:38;12.30;;;7.37;;
63621;SDS011;49770;47.544;19.074;2023-02-28T06:13:41;13.85;;;7.60;;
63621;SDS011;49770;47.544;19.074;2023-02-28T06:16:44;15.45;;;7.87;;
63621;SDS011;49770;47.544;19.074;2023-02-28T06:19:47;16.90;;;7.68;;
63621;SDS011;49770;47.544;19.074;2023-02-28T06:22:50;14.10;;;7.03;;
63621;SDS011;49770;47.544;19.074;2023-02-28T06:25:53;12.32;;;7.30;;
63621;SDS011;49770;47.544;19.074;2023-02-28T06:29:03;13.55;;;7.20;;
63621;SDS011;49770;47.544;19.074;2023-02-28T06:32:05;13.90;;;7.45;;
63621;SDS011;49770;47.544;19.074;2023-02-28T06:35:09;13.73;;;7.50;;
63621;SDS011;49770;47.544;19.074;2023-02-28T06:38:12;11.88;;;6.68;;
63621;SDS011;49770;47.544;19.074;2023-02-28T06:41:14;12.20;;;6.82;;
63621;SDS011;49770;47.544;19.074;2023-02-28T06:44:18;13.93;;;7.05;;
63621;SDS011;49770;47.544;19.074;2023-02-28T06:47:21;15.00;;;7.20;;
63621;SDS011;49770;47.544;19.074;2023-02-28T06:50:24;13.13;;;7.32;;
63621;SDS011;49770;47.544;19.074;2023-02-28T06:53:27;11.73;;;7.30;;
63621;SDS011;49770;47.544;19.074;2023-02-28T06:56:30;14.32;;;7.82;;
63621;SDS011;49770;47.544;19.074;2023-02-28T06:59:33;14.02;;;7.60;;
63621;SDS011;49770;47.544;19.074;2023-02-28T07:02:37;12.68;;;7.35;;
63621;SDS011;49770;47.544;19.074;2023-02-28T07:05:41;14.10;;;7.30;;
63621;SDS011;49770;47.544;19.074;2023-02-28T07:08:44;13.50;;;7.30;;
63621;SDS011;49770;47.544;19.074;2023-02-28T07:11:52;11.38;;;7.43;;
63621;SDS011;49770;47.544;19.074;2023-02-28T07:14:55;12.93;;;7.45;;
63621;SDS011;49770;47.544;19.074;2023-02-28T07:17:58;14.65;;;7.60;;
63621;SDS011;49770;47.544;19.074;2023-02-28T07:21:04;12.75;;;7.10;;
63621;SDS011;49770;47.544;19.074;2023-02-28T07:24:09;13.88;;;7.85;;
63621;SDS011;49770;47.544;19.074;2023-02-28T07:27:12;10.60;;;6.78;;
63621;SDS011;49770;47.544;19.074;2023-02-28T07:30:28;15.43;;;8.25;;
63621;SDS011;49770;47.544;19.074;2023-02-28T07:33:30;12.77;;;7.82;;
63621;SDS011;49770;47.544;19.074;2023-02-28T07:36:34;16.37;;;7.80;;
63621;SDS011;49770;47.544;19.074;2023-02-28T07:39:37;14.27;;;8.00;;
63621;SDS011;49770;47.544;19.074;2023-02-28T07:42:41;15.02;;;7.87;;
63621;SDS011;49770;47.544;19.074;2023-02-28T07:45:47;12.93;;;7.78;;
63621;SDS011;49770;47.544;19.074;2023-02-28T07:48:53;14.07;;;8.02;;
63621;SDS011;49770;47.544;19.074;2023-02-28T07:51:57;10.88;;;7.12;;
63621;SDS011;49770;47.544;19.074;2023-02-28T07:55:00;14.43;;;8.15;;
63621;SDS011;49770;47.544;19.074;2023-02-28T07:58:04;11.88;;;7.50;;
63621;SDS011;49770;47.544;19.074;2023-02-28T08:01:08;14.73;;;8.13;;
63621;SDS011;49770;47.544;19.074;2023-02-28T08:04:12;13.30;;;8.10;;
63621;SDS011;49770;47.544;19.074;2023-02-28T08:07:15;13.85;;;8.63;;
63621;SDS011;49770;47.544;19.074;2023-02-28T08:10:19;13.60;;;8.45;;
63621;SDS011;49770;47.544;19.074;2023-02-28T08:13:22;15.15;;;8.57;;
63621;SDS011;49770;47.544;19.074;2023-02-28T08:16:25;12.70;;;7.97;;
63621;SDS011;49770;47.544;19.074;2023-02-28T08:19:28;12.85;;;8.30;;
63621;SDS011;49770;47.544;19.074;2023-02-28T08:22:31;12.35;;;7.72;;
63621;SDS011;49770;47.544;19.074;2023-02-28T08:25:34;15.60;;;7.28;;
63621;SDS011;49770;47.544;19.074;2023-02-28T08:28:37;18.35;;;8.27;;
63621;SDS011;49770;47.544;19.074;2023-02-28T08:31:39;12.82;;;7.32;;
63621;SDS011;49770;47.544;19.074;2023-02-28T08:34:43;10.60;;;6.87;;
63621;SDS011;49770;47.544;19.074;2023-02-28T08:37:49;8.30;;;6.12;;
63621;SDS011;49770;47.544;19.074;2023-02-28T08:41:02;10.85;;;6.90;;
63621;SDS011;49770;47.544;19.074;2023-02-28T08:44:11;13.00;;;7.68;;
63621;SDS011;49770;47.544;19.074;2023-02-28T08:47:14;9.88;;;7.22;;
63621;SDS011;49770;47.544;19.074;2023-02-28T08:50:16;13.80;;;7.75;;
63621;SDS011;49770;47.544;19.074;2023-02-28T08:53:20;11.73;;;7.68;;
63621;SDS011;49770;47.544;19.074;2023-02-28T08:56:22;11.27;;;7.05;;
63621;SDS011;49770;47.544;19.074;2023-02-28T08:59:25;9.60;;;7.15;;
63621;SDS011;49770;47.544;19.074;2023-02-28T09:02:30;9.85;;;6.22;;
63621;SDS011;49770;47.544;19.074;2023-02-28T09:05:34;8.07;;;6.05;;
63621;SDS011;49770;47.544;19.074;2023-02-28T09:08:36;10.55;;;6.72;;
63621;SDS011;49770;47.544;19.074;2023-02-28T09:11:39;8.60;;;6.75;;
63621;SDS011;49770;47.544;19.074;2023-02-28T09:14:43;10.82;;;6.87;;
63621;SDS011;49770;47.544;19.074;2023-02-28T09:17:45;9.80;;;6.43;;
63621;SDS011;49770;47.544;19.074;2023-02-28T09:20:49;10.38;;;6.80;;
63621;SDS011;49770;47.544;19.074;2023-02-28T09:23:53;9.90;;;6.30;;
63621;SDS011;49770;47.544;19.074;2023-02-28T09:26:56;8.02;;;6.30;;
63621;SDS011;49770;47.544;19.074;2023-02-28T09:33:11;12.95;;;7.07;;
63621;SDS011;49770;47.544;19.074;2023-02-28T09:36:14;13.27;;;6.80;;
63621;SDS011;49770;47.544;19.074;2023-02-28T09:39:17;10.18;;;5.68;;
63621;SDS011;49770;47.544;19.074;2023-02-28T09:42:55;8.82;;;6.00;;
63621;SDS011;49770;47.544;19.074;2023-02-28T09:45:59;10.15;;;6.20;;
63621;SDS011;49770;47.544;19.074;2023-02-28T09:49:12;9.23;;;6.15;;
63621;SDS011;49770;47.544;19.074;2023-02-28T09:52:19;9.85;;;6.35;;
63621;SDS011;49770;47.544;19.074;2023-02-28T09:55:30;11.68;;;6.45;;
63621;SDS011;49770;47.544;19.074;2023-02-28T09:58:49;10.10;;;6.53;;
63621;SDS011;49770;47.544;19.074;2023-02-28T10:02:12;11.60;;;7.12;;
63621;SDS011;49770;47.544;19.074;2023-02-28T10:05:24;14.23;;;6.28;;
63621;SDS011;49770;47.544;19.074;2023-02-28T10:08:38;10.25;;;6.72;;
63621;SDS011;49770;47.544;19.074;2023-02-28T10:11:47;9.88;;;6.40;;
63621;SDS011;49770;47.544;19.074;2023-02-28T10:14:52;9.18;;;5.95;;
63621;SDS011;49770;47.544;19.074;2023-02-28T10:17:58;11.18;;;6.60;;
63621;SDS011;49770;47.544;19.074;2023-02-28T10:21:28;11.32;;;5.70;;
63621;SDS011;49770;47.544;19.074;2023-02-28T10:24:40;10.10;;;5.70;;
63621;SDS011;49770;47.544;19.074;2023-02-28T10:27:43;11.20;;;5.75;;
63621;SDS011;49770;47.544;19.074;2023-02-28T10:30:50;11.45;;;5.70;;
63621;SDS011;49770;47.544;19.074;2023-02-28T10:33:54;11.35;;;6.68;;
63621;SDS011;49770;47.544;19.074;2023-02-28T10:36:58;11.40;;;6.57;;
63621;SDS011;49770;47.544;19.074;2023-02-28T10:43:22;9.65;;;6.65;;
63621;SDS011;49770;47.544;19.074;2023-02-28T10:46:26;9.80;;;6.60;;
63621;SDS011;49770;47.544;19.074;2023-02-28T10:49:35;16.87;;;5.82;;
63621;SDS011;49770;47.544;19.074;2023-02-28T10:52:41;8.45;;;5.97;;
63621;SDS011;49770;47.544;19.074;2023-02-28T10:55:45;11.12;;;6.25;;
63621;SDS011;49770;47.544;19.074;2023-02-28T11:05:40;10.02;;;6.22;;
63621;SDS011;49770;47.544;19.074;2023-02-28T11:08:49;10.07;;;6.20;;
63621;SDS011;49770;47.544;19.074;2023-02-28T11:11:55;8.75;;;6.03;;
63621;SDS011;49770;47.544;19.074;2023-02-28T11:15:46;7.85;;;6.03;;
63621;SDS011;49770;47.544;19.074;2023-02-28T11:22:00;9.07;;;6.20;;
63621;SDS011;49770;47.544;19.074;2023-02-28T11:28:41;10.18;;;6.20;;
63621;SDS011;49770;47.544;19.074;2023-02-28T11:35:21;11.18;;;6.70;;
63621;SDS011;49770;47.544;19.074;2023-02-28T11:38:28;9.90;;;6.65;;
63621;SDS011;49770;47.544;19.074;2023-02-28T11:48:41;12.45;;;7.07;;
63621;SDS011;49770;47.544;19.074;2023-02-28T11:52:21;10.30;;;6.87;;
63621;SDS011;49770;47.544;19.074;2023-02-28T11:55:49;8.97;;;6.60;;
63621;SDS011;49770;47.544;19.074;2023-02-28T12:03:08;10.45;;;6.82;;
63621;SDS011;49770;47.544;19.074;2023-02-28T12:48:46;9.15;;;5.72;;
63621;SDS011;49770;47.544;19.074;2023-02-28T13:14:01;13.02;;;5.72;;
63621;SDS011;49770;47.544;19.074;2023-02-28T13:17:11;9.98;;;5.53;;
63621;SDS011;49770;47.544;19.074;2023-02-28T13:20:23;7.80;;;5.80;;
63621;SDS011;49770;47.544;19.074;2023-02-28T14:08:14;8.45;;;5.45;;
63621;SDS011;49770;47.544;19.074;2023-02-28T14:11:38;7.75;;;5.53;;
63621;SDS011;49770;47.544;19.074;2023-02-28T14:17:45;7.37;;;5.65;;
63621;SDS011;49770;47.544;19.074;2023-02-28T14:20:55;8.63;;;5.90;;
63621;SDS011;49770;47.544;19.074;2023-02-28T14:31:09;9.27;;;5.62;;
63621;SDS011;49770;47.544;19.074;2023-02-28T14:38:05;9.38;;;5.97;;
63621;SDS011;49770;47.544;19.074;2023-02-28T14:41:30;10.95;;;6.35;;
63621;SDS011;49770;47.544;19.074;2023-02-28T14:47:41;9.38;;;5.80;;
63621;SDS011;49770;47.544;19.074;2023-02-28T14:50:48;10.70;;;6.37;;
63621;SDS011;49770;47.544;19.074;2023-02-28T14:53:58;11.70;;;6.32;;
63621;SDS011;49770;47.544;19.074;2023-02-28T15:00:34;11.75;;;6.43;;
63621;SDS011;49770;47.544;19.074;2023-02-28T15:03:41;9.07;;;5.80;;
63621;SDS011;49770;47.544;19.074;2023-02-28T15:06:53;9.25;;;6.25;;
63621;SDS011;49770;47.544;19.074;2023-02-28T15:10:20;7.45;;;5.57;;
63621;SDS011;49770;47.544;19.074;2023-02-28T15:13:24;8.90;;;6.30;;
63621;SDS011;49770;47.544;19.074;2023-02-28T15:16:37;10.85;;;6.18;;
63621;SDS011;49770;47.544;19.074;2023-02-28T15:19:44;8.70;;;6.32;;
63621;SDS011;49770;47.544;19.074;2023-02-28T15:22:51;9.32;;;6.30;;
63621;SDS011;49770;47.544;19.074;2023-02-28T15:25:58;11.65;;;6.87;;
63621;SDS011;49770;47.544;19.074;2023-02-28T15:29:05;9.20;;;5.75;;
63621;SDS011;49770;47.544;19.074;2023-02-28T15:35:43;9.85;;;6.15;;
63621;SDS011;49770;47.544;19.074;2023-02-28T15:38:50;11.93;;;7.00;;
63621;SDS011;49770;47.544;19.074;2023-02-28T15:42:11;13.02;;;6.97;;
63621;SDS011;49770;47.544;19.074;2023-02-28T15:45:28;9.13;;;6.32;;
63621;SDS011;49770;47.544;19.074;2023-02-28T15:48:38;10.27;;;6.75;;
63621;SDS011;49770;47.544;19.074;2023-02-28T15:51:45;14.43;;;8.05;;
63621;SDS011;49770;47.544;19.074;2023-02-28T15:54:48;12.73;;;7.20;;
63621;SDS011;49770;47.544;19.074;2023-02-28T15:57:53;13.60;;;7.60;;
63621;SDS011;49770;47.544;19.074;2023-02-28T16:01:17;16.90;;;7.95;;
63621;SDS011;49770;47.544;19.074;2023-02-28T16:04:26;11.57;;;7.35;;
63621;SDS011;49770;47.544;19.074;2023-02-28T16:07:37;13.57;;;8.15;;
63621;SDS011;49770;47.544;19.074;2023-02-28T16:10:41;13.93;;;8.25;;
63621;SDS011;49770;47.544;19.074;2023-02-28T16:13:44;13.15;;;7.72;;
63621;SDS011;49770;47.544;19.074;2023-02-28T16:16:48;11.48;;;7.03;;
63621;SDS011;49770;47.544;19.074;2023-02-28T16:19:53;13.00;;;7.82;;
63621;SDS011;49770;47.544;19.074;2023-02-28T16:22:57;13.62;;;7.97;;
63621;SDS011;49770;47.544;19.074;2023-02-28T16:26:04;15.88;;;8.05;;
63621;SDS011;49770;47.544;19.074;2023-02-28T16:29:09;11.52;;;7.62;;
63621;SDS011;49770;47.544;19.074;2023-02-28T16:32:16;14.25;;;8.13;;
63621;SDS011;49770;47.544;19.074;2023-02-28T16:35:19;12.48;;;7.78;;
63621;SDS011;49770;47.544;19.074;2023-02-28T16:38:22;15.52;;;8.13;;
63621;SDS011;49770;47.544;19.074;2023-02-28T16:41:27;15.73;;;8.15;;
63621;SDS011;49770;47.544;19.074;2023-02-28T16:44:31;18.23;;;8.25;;
63621;SDS011;49770;47.544;19.074;2023-02-28T16:47:40;12.48;;;8.10;;
63621;SDS011;49770;47.544;19.074;2023-02-28T16:50:44;13.93;;;7.75;;
63621;SDS011;49770;47.544;19.074;2023-02-28T16:53:47;12.88;;;8.30;;
63621;SDS011;49770;47.544;19.074;2023-02-28T16:56:50;15.45;;;9.00;;
